Time;durP1;ratioP1;P1;durP2;ratioP2;P2;SDS_P1;SDS_P2;PMS_P1;PMS_P2;Temp;Humidity;BMP_temperature;BMP_pressure;BME280_temperature;BME280_humidity;BME280_pressure;Samples;Min_cycle;Max_cycle;Signal;HPM_P1;HPM_P2
2022/10/19 00:01:55;;;;;;;4.43;3.30;;;15.70;99.90;;;;;;5039829;28;20793;-75
2022/10/19 00:04:21;;;;;;;4.13;3.37;;;15.70;99.90;;;;;;5040065;28;20206;-75
2022/10/19 00:06:47;;;;;;;3.03;2.63;;;15.60;99.90;;;;;;5046482;28;20207;-75
2022/10/19 00:09:16;;;;;;;3.97;3.30;;;15.60;99.90;;;;;;5042012;28;20251;-75
2022/10/19 00:11:44;;;;;;;4.63;3.17;;;15.50;99.90;;;;;;5040720;28;20182;-75
2022/10/19 00:14:16;;;;;;;3.90;3.50;;;15.50;99.90;;;;;;5035375;28;20963;-75
2022/10/19 00:16:44;;;;;;;3.77;3.07;;;15.50;99.90;;;;;;5045132;28;20209;-75
2022/10/19 00:19:13;;;;;;;3.70;3.40;;;15.50;99.90;;;;;;5046043;28;20236;-75
2022/10/19 00:21:39;;;;;;;6.13;2.83;;;15.50;99.90;;;;;;5045007;28;20727;-75
2022/10/19 00:24:07;;;;;;;3.50;3.20;;;15.50;99.90;;;;;;5046311;28;20301;-75
2022/10/19 00:26:33;;;;;;;4.03;2.70;;;15.40;99.90;;;;;;5039879;28;20945;-75
2022/10/19 00:28:58;;;;;;;5.20;2.97;;;15.50;99.90;;;;;;5044446;28;20285;-75
2022/10/19 00:31:25;;;;;;;4.00;2.93;;;15.50;99.90;;;;;;5037171;28;20267;-75
2022/10/19 00:33:51;;;;;;;4.50;2.60;;;15.40;99.90;;;;;;5042085;28;20284;-75
2022/10/19 00:36:28;;;;;;;4.00;2.30;;;15.40;99.90;;;;;;5038139;28;20639;-75
2022/10/19 00:38:54;;;;;;;4.83;2.13;;;15.40;99.90;;;;;;5037412;28;20186;-75
2022/10/19 00:41:22;;;;;;;2.77;2.00;;;15.30;99.90;;;;;;5045254;28;20583;-75
2022/10/19 00:43:55;;;;;;;4.67;3.13;;;15.20;99.90;;;;;;5046266;28;20708;-75
2022/10/19 00:46:22;;;;;;;4.40;2.50;;;15.20;99.90;;;;;;5045960;28;20182;-75
2022/10/19 00:48:51;;;;;;;3.17;2.10;;;15.20;99.90;;;;;;5044733;28;20220;-75
2022/10/19 00:51:17;;;;;;;5.07;1.70;;;15.10;99.90;;;;;;5042215;28;20885;-75
2022/10/19 00:53:44;;;;;;;3.23;2.07;;;15.00;99.90;;;;;;5044580;28;20860;-75
2022/10/19 00:56:13;;;;;;;14.17;2.13;;;15.00;99.90;;;;;;5046886;28;20184;-74
2022/10/19 00:58:41;;;;;;;4.00;1.80;;;15.00;99.90;;;;;;5042454;28;20192;-75
2022/10/19 01:01:10;;;;;;;3.33;1.60;;;14.90;99.90;;;;;;5042605;28;20553;-75
2022/10/19 01:03:36;;;;;;;1.83;1.73;;;14.90;99.90;;;;;;5064195;28;20224;-75
2022/10/19 01:06:03;;;;;;;7.37;1.80;;;14.80;99.90;;;;;;5043013;28;20690;-75
2022/10/19 01:08:29;;;;;;;5.57;1.93;;;14.70;99.90;;;;;;5040826;28;20202;-75
2022/10/19 01:11:34;;;;;;;5.00;1.80;;;14.70;99.90;;;;;;5044344;28;20173;-75
2022/10/19 01:14:06;;;;;;;6.60;2.07;;;14.80;99.90;;;;;;5033413;28;20222;-75
2022/10/19 01:16:46;;;;;;;3.00;2.10;;;14.70;99.90;;;;;;5045159;28;20176;-75
2022/10/19 01:19:48;;;;;;;2.20;2.00;;;14.70;99.90;;;;;;5045939;28;20180;-75
2022/10/19 01:22:52;;;;;;;5.13;2.87;;;14.60;99.90;;;;;;5007572;28;20196;-75
2022/10/19 01:25:23;;;;;;;3.33;3.03;;;14.70;99.90;;;;;;5039910;28;20248;-75
2022/10/19 01:27:48;;;;;;;3.90;2.87;;;14.70;99.90;;;;;;5040584;28;20221;-75
2022/10/19 01:30:21;;;;;;;2.90;1.97;;;14.70;99.90;;;;;;5046518;28;20202;-75
2022/10/19 01:33:16;;;;;;;3.40;2.10;;;14.60;99.90;;;;;;5045528;28;20220;-75
2022/10/19 01:36:01;;;;;;;8.07;4.10;;;14.60;99.90;;;;;;5041581;28;20193;-75
2022/10/19 01:38:36;;;;;;;7.47;4.80;;;14.50;99.90;;;;;;5058232;28;20190;-75
2022/10/19 01:41:41;;;;;;;6.10;3.70;;;14.60;99.90;;;;;;5039353;28;20264;-75
2022/10/19 01:44:24;;;;;;;5.20;3.20;;;14.50;99.90;;;;;;5041651;28;20288;-75
2022/10/19 01:47:03;;;;;;;3.27;2.97;;;14.40;99.90;;;;;;5042587;28;20204;-75
2022/10/19 01:50:01;;;;;;;5.20;3.40;;;14.40;99.90;;;;;;5030033;28;20252;-75
2022/10/19 01:52:28;;;;;;;2.90;2.63;;;14.40;99.90;;;;;;4997526;28;20182;-75
2022/10/19 01:54:57;;;;;;;3.30;2.90;;;14.30;99.90;;;;;;5038779;28;20240;-74
2022/10/19 01:57:29;;;;;;;6.70;3.97;;;14.40;99.90;;;;;;5044023;28;20292;-74
2022/10/19 01:59:56;;;;;;;10.57;3.93;;;14.30;99.90;;;;;;5042695;28;20557;-75
2022/10/19 02:02:25;;;;;;;14.43;4.40;;;14.30;99.90;;;;;;5045296;28;20382;-75
2022/10/19 02:04:53;;;;;;;5.30;2.70;;;14.30;99.90;;;;;;5043594;28;20206;-75
2022/10/19 02:07:21;;;;;;;3.30;3.00;;;14.30;99.90;;;;;;5039220;28;20731;-75
2022/10/19 02:09:47;;;;;;;5.07;2.90;;;14.20;99.90;;;;;;5038214;28;20260;-75
2022/10/19 02:12:15;;;;;;;18.17;3.50;;;14.30;99.90;;;;;;5040814;28;20178;-75
2022/10/19 02:14:50;;;;;;;11.47;3.70;;;14.30;99.90;;;;;;5032035;28;20206;-75
2022/10/19 02:17:21;;;;;;;8.57;3.40;;;14.20;99.90;;;;;;5035980;28;20170;-75
2022/10/19 02:19:46;;;;;;;3.80;3.50;;;14.20;99.90;;;;;;5045813;28;20253;-75
2022/10/19 02:22:13;;;;;;;3.40;3.10;;;14.20;99.90;;;;;;5040669;28;20187;-75
2022/10/19 02:24:39;;;;;;;6.93;3.60;;;14.10;99.90;;;;;;5043885;28;20197;-75
2022/10/19 02:27:06;;;;;;;4.70;3.30;;;14.20;99.90;;;;;;5044634;28;20186;-75
2022/10/19 02:29:34;;;;;;;9.93;3.57;;;14.20;99.90;;;;;;5044250;28;20209;-75
2022/10/19 02:32:00;;;;;;;16.43;3.87;;;14.10;99.90;;;;;;5036957;28;20194;-75
2022/10/19 02:34:27;;;;;;;8.47;4.03;;;14.20;99.90;;;;;;5045075;28;20310;-75
2022/10/19 02:36:53;;;;;;;4.00;3.60;;;14.10;99.90;;;;;;5038997;28;20223;-75
2022/10/19 02:39:19;;;;;;;5.43;3.53;;;14.10;99.90;;;;;;5040433;28;20189;-75
2022/10/19 02:41:50;;;;;;;5.10;3.37;;;14.10;99.90;;;;;;5042145;28;20631;-75
2022/10/19 02:44:26;;;;;;;4.97;4.57;;;14.10;99.90;;;;;;5040695;28;20202;-74
2022/10/19 02:47:01;;;;;;;8.17;4.50;;;14.00;99.90;;;;;;5060344;28;20186;-74
2022/10/19 02:49:28;;;;;;;7.57;4.77;;;14.00;99.90;;;;;;5060093;28;20197;-75
2022/10/19 02:52:00;;;;;;;12.83;4.23;;;14.00;99.90;;;;;;5041881;28;20565;-75
2022/10/19 02:54:27;;;;;;;12.93;6.20;;;14.00;99.90;;;;;;5047973;28;20194;-75
2022/10/19 02:56:53;;;;;;;5.13;4.33;;;14.00;99.90;;;;;;5048424;28;20610;-75
2022/10/19 02:59:19;;;;;;;7.37;4.03;;;14.00;99.90;;;;;;5048429;28;20181;-75
2022/10/19 03:01:45;;;;;;;5.93;4.00;;;13.90;99.90;;;;;;5040820;28;20186;-75
2022/10/19 03:04:11;;;;;;;8.80;4.10;;;13.90;99.90;;;;;;5046047;28;20210;-75
2022/10/19 03:06:37;;;;;;;6.83;4.17;;;13.90;99.90;;;;;;5041846;28;20194;-75
2022/10/19 03:09:02;;;;;;;10.47;4.43;;;14.00;99.90;;;;;;5045395;28;20572;-75
2022/10/19 03:11:28;;;;;;;7.07;4.40;;;13.90;99.90;;;;;;5044542;28;20174;-75
2022/10/19 03:13:54;;;;;;;8.43;4.83;;;14.00;99.90;;;;;;5046949;28;20202;-75
2022/10/19 03:16:20;;;;;;;10.50;4.50;;;13.90;99.90;;;;;;5039576;28;20269;-74
2022/10/19 03:18:48;;;;;;;9.77;4.00;;;14.00;99.90;;;;;;5042004;28;20204;-75
2022/10/19 03:21:13;;;;;;;13.13;4.40;;;14.00;99.90;;;;;;5045493;28;20898;-75
2022/10/19 03:23:40;;;;;;;13.17;5.60;;;14.00;99.90;;;;;;5027661;28;20208;-75
2022/10/19 03:26:10;;;;;;;20.23;6.60;;;14.00;99.90;;;;;;5042385;28;20181;-75
2022/10/19 03:28:36;;;;;;;12.83;6.90;;;14.00;99.90;;;;;;5047115;28;20288;-75
2022/10/19 03:31:02;;;;;;;28.47;7.50;;;14.10;99.90;;;;;;5047435;28;20319;-75
2022/10/19 03:33:27;;;;;;;12.13;7.10;;;14.00;99.90;;;;;;5041542;28;20283;-74
2022/10/19 03:36:26;;;;;;;6.87;6.20;;;14.00;99.90;;;;;;5035354;28;20187;-74
2022/10/19 03:39:03;;;;;;;7.50;5.83;;;14.00;99.90;;;;;;5044659;28;20194;-75
2022/10/19 03:41:31;;;;;;;9.37;6.70;;;14.00;99.90;;;;;;5045488;28;20173;-75
2022/10/19 03:43:57;;;;;;;9.20;6.30;;;14.00;99.90;;;;;;5040582;28;20210;-75
2022/10/19 03:46:23;;;;;;;10.33;7.40;;;14.00;99.90;;;;;;5046239;28;20197;-75
2022/10/19 03:48:49;;;;;;;6.83;6.10;;;14.00;99.90;;;;;;5046218;28;20203;-75
2022/10/19 03:51:18;;;;;;;14.23;6.83;;;14.00;99.90;;;;;;5045737;28;20177;-75
2022/10/19 03:53:45;;;;;;;6.77;5.70;;;14.00;99.90;;;;;;5035005;28;20328;-75
2022/10/19 03:56:14;;;;;;;7.47;6.10;;;14.00;99.90;;;;;;5034098;28;20273;-75
2022/10/19 03:58:41;;;;;;;8.00;6.60;;;13.90;99.90;;;;;;5037681;28;20678;-75
2022/10/19 04:01:10;;;;;;;11.33;7.20;;;13.90;99.90;;;;;;5037636;28;20209;-75
2022/10/19 04:03:35;;;;;;;19.30;7.73;;;13.90;99.90;;;;;;5043300;28;20637;-75
2022/10/19 04:06:07;;;;;;;6.83;6.13;;;13.90;99.90;;;;;;5043881;28;20178;-76
2022/10/19 04:08:33;;;;;;;5.80;5.20;;;13.90;99.90;;;;;;5048311;28;20217;-76
2022/10/19 04:11:04;;;;;;;11.53;6.47;;;13.90;99.90;;;;;;5038321;28;20190;-76
2022/10/19 04:13:31;;;;;;;8.70;7.32;;;13.90;99.90;;;;;;5043292;28;20938;-76
2022/10/19 04:15:57;;;;;;;8.33;6.33;;;13.90;99.90;;;;;;5037662;28;20332;-76
2022/10/19 04:18:23;;;;;;;6.57;5.50;;;14.00;99.90;;;;;;5039096;28;20178;-76
2022/10/19 04:21:02;;;;;;;6.83;5.20;;;14.10;99.90;;;;;;5037564;28;20678;-76
2022/10/19 04:23:31;;;;;;;8.47;6.50;;;14.10;99.90;;;;;;5041301;28;20209;-76
2022/10/19 04:26:01;;;;;;;8.97;6.40;;;14.20;99.90;;;;;;5041043;28;20252;-76
2022/10/19 04:28:27;;;;;;;9.27;6.47;;;14.30;99.90;;;;;;5038429;28;20716;-76
2022/10/19 04:30:53;;;;;;;8.40;6.53;;;14.40;99.90;;;;;;5046285;28;20182;-76
2022/10/19 04:33:19;;;;;;;7.40;6.60;;;14.40;99.90;;;;;;5040376;28;20212;-76
2022/10/19 04:35:44;;;;;;;11.30;7.80;;;14.40;99.90;;;;;;5043840;28;20239;-76
2022/10/19 04:38:10;;;;;;;8.07;7.20;;;14.30;99.90;;;;;;5038891;28;20716;-76
2022/10/19 04:40:37;;;;;;;8.23;6.70;;;14.20;99.90;;;;;;5039846;28;20185;-76
2022/10/19 04:43:03;;;;;;;10.50;7.80;;;14.10;99.90;;;;;;5040927;28;20912;-76
2022/10/19 04:45:29;;;;;;;7.23;6.50;;;14.10;99.90;;;;;;5045194;28;20891;-76
2022/10/19 04:47:57;;;;;;;7.82;6.97;;;14.10;99.90;;;;;;5045998;28;20434;-76
2022/10/19 04:50:24;;;;;;;8.15;7.35;;;14.10;99.90;;;;;;5039597;28;20423;-76
2022/10/19 04:52:54;;;;;;;7.17;6.47;;;14.20;99.90;;;;;;5046792;28;20190;-76
2022/10/19 04:55:20;;;;;;;7.93;6.70;;;14.30;99.90;;;;;;5044921;28;20181;-76
2022/10/19 04:57:46;;;;;;;9.90;7.13;;;14.30;99.90;;;;;;5041959;28;20707;-76
2022/10/19 05:00:13;;;;;;;8.67;7.17;;;14.30;99.90;;;;;;5039349;28;20591;-76
2022/10/19 05:02:46;;;;;;;8.07;7.17;;;14.40;99.90;;;;;;5043225;28;20554;-76
2022/10/19 05:05:13;;;;;;;7.20;6.50;;;14.40;99.90;;;;;;5041902;28;20261;-76
2022/10/19 05:07:38;;;;;;;6.77;5.80;;;14.30;99.90;;;;;;5033471;28;20631;-76
2022/10/19 05:10:05;;;;;;;7.23;5.60;;;14.30;99.90;;;;;;5044368;28;20268;-76
2022/10/19 05:12:31;;;;;;;6.13;5.53;;;14.20;99.90;;;;;;5038507;28;20186;-76
2022/10/19 05:14:57;;;;;;;6.30;5.70;;;14.10;99.90;;;;;;5042211;28;20201;-76
2022/10/19 05:17:23;;;;;;;7.27;6.57;;;14.10;99.90;;;;;;5036718;28;20193;-76
2022/10/19 05:19:48;;;;;;;6.77;6.07;;;14.10;99.90;;;;;;5043681;28;20182;-76
2022/10/19 05:22:14;;;;;;;8.37;6.60;;;14.10;99.90;;;;;;5030891;28;20182;-78
2022/10/19 05:24:40;;;;;;;8.95;7.90;;;14.00;99.90;;;;;;5062864;28;20848;-79
2022/10/19 05:27:05;;;;;;;8.20;7.30;;;14.00;99.90;;;;;;5045859;28;20193;-77
2022/10/19 05:29:32;;;;;;;7.30;6.50;;;14.00;99.90;;;;;;5036979;28;20202;-75
2022/10/19 05:31:58;;;;;;;9.53;7.70;;;14.00;99.90;;;;;;5038668;28;20174;-76
2022/10/19 05:34:24;;;;;;;9.53;6.67;;;14.00;99.90;;;;;;5034306;28;20202;-74
2022/10/19 05:36:50;;;;;;;6.90;6.17;;;14.00;99.90;;;;;;5032399;28;20181;-77
2022/10/19 05:39:16;;;;;;;8.57;7.40;;;14.00;99.90;;;;;;5040540;28;20499;-76
2022/10/19 05:41:46;;;;;;;8.00;7.17;;;14.00;99.90;;;;;;5042969;28;20186;-82
2022/10/19 05:44:18;;;;;;;8.33;7.37;;;13.90;99.90;;;;;;5011500;28;20210;-79
2022/10/19 05:46:43;;;;;;;11.03;9.00;;;13.90;99.90;;;;;;5033353;28;20290;-78
2022/10/19 05:49:13;;;;;;;8.23;7.33;;;14.00;99.90;;;;;;5035775;28;20301;-78
2022/10/19 05:51:40;;;;;;;8.40;7.50;;;14.00;99.90;;;;;;5035545;28;20186;-79
2022/10/19 05:54:07;;;;;;;9.20;8.07;;;14.00;99.90;;;;;;5034779;28;20256;-78
2022/10/19 05:56:33;;;;;;;7.53;6.83;;;14.00;99.90;;;;;;5035176;28;20387;-78
2022/10/19 05:59:01;;;;;;;7.20;6.37;;;14.00;99.90;;;;;;5051164;28;20533;-79
2022/10/19 06:01:28;;;;;;;8.67;6.50;;;14.00;99.90;;;;;;5047985;28;20190;-79
2022/10/19 06:03:58;;;;;;;7.27;6.10;;;14.00;99.90;;;;;;5035642;28;20254;-80
2022/10/19 06:06:25;;;;;;;6.83;6.10;;;14.00;99.90;;;;;;5037481;28;20684;-78
2022/10/19 06:08:53;;;;;;;8.23;6.37;;;14.00;99.90;;;;;;5034685;28;20220;-79
2022/10/19 06:11:21;;;;;;;7.13;6.23;;;14.00;99.90;;;;;;5034053;28;20328;-78
2022/10/19 06:13:49;;;;;;;7.83;6.40;;;14.00;99.90;;;;;;5034059;28;20199;-80
2022/10/19 06:16:17;;;;;;;6.63;6.00;;;13.90;99.90;;;;;;5030026;28;20219;-79
2022/10/19 06:18:43;;;;;;;8.33;6.83;;;13.90;99.90;;;;;;5047532;28;20177;-78
2022/10/19 06:21:17;;;;;;;12.17;8.37;;;13.80;99.90;;;;;;5047518;28;20181;-78
2022/10/19 06:23:43;;;;;;;10.43;8.10;;;13.80;99.90;;;;;;5048179;28;20201;-78
2022/10/19 06:26:11;;;;;;;10.80;7.70;;;13.80;99.90;;;;;;5047250;28;20186;-78
2022/10/19 06:28:39;;;;;;;9.30;6.40;;;13.80;99.90;;;;;;5041529;28;20209;-79
2022/10/19 06:31:05;;;;;;;7.70;6.33;;;13.90;99.90;;;;;;5042982;28;20181;-78
2022/10/19 06:33:31;;;;;;;9.50;6.63;;;13.90;99.90;;;;;;5039513;28;20754;-78
2022/10/19 06:36:18;;;;;;;11.27;8.90;;;13.90;99.90;;;;;;5043259;28;20979;-78
2022/10/19 06:38:43;;;;;;;12.63;10.73;;;13.90;99.90;;;;;;5040910;28;20186;-79
2022/10/19 06:41:10;;;;;;;16.07;13.33;;;13.90;99.90;;;;;;5048609;28;20192;-78
2022/10/19 06:43:36;;;;;;;13.80;12.37;;;13.90;99.90;;;;;;5041612;28;20213;-78
2022/10/19 06:46:07;;;;;;;14.00;12.00;;;13.90;99.90;;;;;;5038513;28;20605;-80
2022/10/19 06:48:33;;;;;;;14.60;12.10;;;13.90;99.90;;;;;;5049695;28;20304;-78
2022/10/19 06:51:01;;;;;;;11.03;9.90;;;14.00;99.90;;;;;;5045008;28;20194;-78
2022/10/19 06:53:28;;;;;;;11.00;9.57;;;14.00;99.90;;;;;;5034545;28;20201;-78
2022/10/19 06:55:58;;;;;;;10.30;9.30;;;14.00;99.90;;;;;;5044154;28;20174;-77
2022/10/19 06:58:24;;;;;;;11.40;9.03;;;14.00;99.90;;;;;;5046568;28;20185;-76
2022/10/19 07:00:58;;;;;;;10.80;8.77;;;14.10;99.90;;;;;;5041135;28;20192;-74
2022/10/19 07:03:25;;;;;;;13.53;8.60;;;14.30;99.90;;;;;;5047906;28;20206;-75
2022/10/19 07:05:53;;;;;;;11.27;8.43;;;14.40;99.90;;;;;;5045587;28;20194;-74
2022/10/19 07:08:18;;;;;;;10.30;7.77;;;14.50;99.90;;;;;;5039740;28;20206;-75
2022/10/19 07:10:52;;;;;;;9.50;8.03;;;14.60;99.90;;;;;;5042099;28;20188;-74
2022/10/19 07:13:19;;;;;;;11.83;8.73;;;14.70;99.90;;;;;;5047143;28;20216;-75
2022/10/19 07:15:45;;;;;;;10.10;7.97;;;14.80;99.90;;;;;;5046193;28;20260;-75
2022/10/19 07:18:10;;;;;;;8.33;7.27;;;14.90;99.90;;;;;;5037563;28;20162;-75
2022/10/19 07:20:36;;;;;;;9.03;8.13;;;15.00;99.90;;;;;;5042805;28;20197;-75
2022/10/19 07:23:02;;;;;;;10.30;7.90;;;15.00;99.90;;;;;;5046589;28;20216;-75
2022/10/19 07:25:29;;;;;;;9.80;7.80;;;15.10;99.90;;;;;;5043308;28;20265;-74
2022/10/19 07:27:55;;;;;;;9.03;7.70;;;15.20;99.90;;;;;;5049586;28;20239;-76
2022/10/19 07:30:21;;;;;;;10.70;8.07;;;15.20;99.90;;;;;;5046453;28;20200;-74
2022/10/19 07:32:47;;;;;;;10.00;7.83;;;15.30;99.90;;;;;;5038122;28;20178;-74
2022/10/19 07:35:13;;;;;;;8.30;6.97;;;15.30;99.90;;;;;;5032121;28;20232;-74
2022/10/19 07:37:39;;;;;;;8.80;7.10;;;15.30;99.90;;;;;;5043551;28;20182;-76
2022/10/19 07:40:05;;;;;;;8.30;7.30;;;15.40;99.90;;;;;;5041738;28;20174;-75
2022/10/19 07:42:30;;;;;;;8.77;7.80;;;15.40;99.90;;;;;;5038137;28;20205;-75
2022/10/19 07:44:56;;;;;;;7.93;7.10;;;15.40;99.90;;;;;;5045116;28;20244;-74
2022/10/19 07:47:22;;;;;;;10.00;8.10;;;15.30;99.90;;;;;;5045251;28;20182;-75
2022/10/19 07:49:47;;;;;;;10.07;8.13;;;15.40;99.90;;;;;;5049834;28;20209;-75
2022/10/19 07:52:13;;;;;;;8.50;7.37;;;15.30;99.90;;;;;;5043509;28;20268;-74
2022/10/19 07:54:39;;;;;;;11.07;7.73;;;15.40;99.90;;;;;;5044612;28;20212;-75
2022/10/19 07:57:05;;;;;;;9.50;7.53;;;15.40;99.90;;;;;;5043430;28;20185;-75
2022/10/19 07:59:31;;;;;;;9.33;7.50;;;15.50;99.90;;;;;;5039534;28;20182;-75
2022/10/19 08:01:57;;;;;;;7.67;6.87;;;15.50;99.90;;;;;;5042880;28;20173;-75
2022/10/19 08:04:23;;;;;;;9.40;7.57;;;15.50;99.90;;;;;;5044169;28;20277;-75
2022/10/19 08:06:49;;;;;;;8.80;6.70;;;15.50;99.90;;;;;;5042056;28;20284;-75
2022/10/19 08:09:15;;;;;;;9.27;6.80;;;15.50;99.90;;;;;;5048880;28;20221;-74
2022/10/19 08:11:41;;;;;;;9.77;7.23;;;15.60;99.90;;;;;;5039288;28;20159;-75
2022/10/19 08:14:06;;;;;;;8.70;7.10;;;15.60;99.90;;;;;;5047687;28;20205;-75
2022/10/19 08:16:40;;;;;;;9.20;7.90;;;15.70;99.90;;;;;;5048858;28;20217;-75
2022/10/19 08:19:08;;;;;;;7.37;6.57;;;15.70;99.90;;;;;;5038194;28;20182;-75
2022/10/19 08:21:35;;;;;;;7.70;6.90;;;15.90;99.90;;;;;;5043638;28;20539;-75
2022/10/19 08:24:01;;;;;;;9.53;7.13;;;16.00;99.90;;;;;;5040741;28;20282;-75
2022/10/19 08:26:28;;;;;;;8.67;6.33;;;16.10;99.90;;;;;;5036969;28;20808;-74
2022/10/19 08:29:02;;;;;;;7.47;6.70;;;16.10;99.90;;;;;;5047748;28;20235;-75
2022/10/19 08:31:28;;;;;;;6.13;5.53;;;16.10;99.90;;;;;;5048480;28;20177;-75
2022/10/19 08:33:54;;;;;;;5.70;5.20;;;16.00;99.90;;;;;;5041280;28;20201;-75
2022/10/19 08:36:20;;;;;;;6.50;5.60;;;15.90;99.90;;;;;;5039502;28;20186;-75
2022/10/19 08:38:48;;;;;;;5.83;5.30;;;15.80;99.90;;;;;;5047497;28;20245;-77
2022/10/19 08:41:39;;;;;;;8.07;6.10;;;15.70;99.90;;;;;;5044621;28;20581;-74
2022/10/19 08:44:27;;;;;;;5.63;5.13;;;15.60;99.90;;;;;;5043805;28;20202;-74
2022/10/19 08:47:35;;;;;;;5.30;4.80;;;15.60;99.90;;;;;;5035012;28;20914;-74
2022/10/19 08:50:08;;;;;;;7.23;5.47;;;15.60;99.90;;;;;;5038708;28;20236;-74
2022/10/19 08:52:35;;;;;;;6.30;5.70;;;15.70;99.90;;;;;;5039019;28;20204;-75
2022/10/19 08:55:07;;;;;;;7.40;6.70;;;15.70;99.90;;;;;;5041552;28;20213;-75
2022/10/19 08:57:55;;;;;;;7.00;6.20;;;15.80;99.90;;;;;;5041560;28;20625;-74
2022/10/19 09:00:41;;;;;;;7.50;6.80;;;15.90;99.90;;;;;;5043165;28;20653;-74
2022/10/19 09:03:41;;;;;;;9.10;7.23;;;16.00;99.90;;;;;;5037710;28;20210;-75
2022/10/19 09:06:47;;;;;;;8.23;7.30;;;16.10;99.90;;;;;;5034438;28;20178;-74
2022/10/19 09:09:14;;;;;;;7.80;7.00;;;16.20;99.90;;;;;;5039476;28;20217;-74
2022/10/19 09:11:45;;;;;;;8.10;7.30;;;16.30;99.90;;;;;;5045410;28;20715;-74
2022/10/19 09:14:19;;;;;;;8.57;7.23;;;16.50;99.90;;;;;;5056582;28;20547;-75
2022/10/19 09:16:45;;;;;;;7.47;6.57;;;16.60;99.90;;;;;;5045403;28;20464;-74
2022/10/19 09:19:20;;;;;;;7.90;6.87;;;16.70;99.90;;;;;;5046025;28;20200;-76
2022/10/19 09:21:50;;;;;;;7.63;6.93;;;16.90;99.90;;;;;;5042332;28;20197;-74
2022/10/19 09:24:35;;;;;;;10.87;7.50;;;17.00;99.90;;;;;;5047254;28;21796;-74
2022/10/19 09:27:01;;;;;;;9.73;8.13;;;17.20;99.90;;;;;;5043292;28;20558;-76
2022/10/19 09:29:48;;;;;;;10.07;9.07;;;17.30;99.90;;;;;;5045698;28;20236;-77
2022/10/19 09:32:36;;;;;;;9.40;8.40;;;17.40;99.90;;;;;;5040744;28;20178;-75
2022/10/19 09:35:28;;;;;;;10.17;8.90;;;17.50;99.90;;;;;;5044893;28;20229;-76
2022/10/19 09:37:55;;;;;;;14.33;10.33;;;17.60;99.90;;;;;;5034144;28;20181;-75
2022/10/19 09:40:24;;;;;;;11.30;9.00;;;17.60;99.90;;;;;;5045040;28;20195;-74
2022/10/19 09:42:55;;;;;;;8.30;7.50;;;17.50;99.90;;;;;;5045401;28;20210;-75
2022/10/19 09:45:52;;;;;;;9.53;8.60;;;17.40;99.90;;;;;;5055525;28;20236;-75
2022/10/19 09:48:40;;;;;;;9.90;8.90;;;17.40;99.90;;;;;;5045886;28;20205;-75
2022/10/19 09:51:15;;;;;;;8.30;7.50;;;17.30;99.90;;;;;;5034251;28;20176;-75
2022/10/19 09:53:50;;;;;;;7.60;6.60;;;17.30;99.90;;;;;;5041761;28;20204;-75
2022/10/19 09:56:20;;;;;;;7.60;6.90;;;17.30;99.90;;;;;;5043440;28;20173;-74
2022/10/19 09:58:51;;;;;;;8.53;7.63;;;17.20;99.90;;;;;;5039392;28;20186;-75
2022/10/19 10:01:37;;;;;;;8.20;7.40;;;17.30;99.90;;;;;;5040250;28;20829;-75
2022/10/19 10:04:08;;;;;;;8.10;7.40;;;17.30;99.90;;;;;;5039204;28;20206;-75
2022/10/19 10:06:37;;;;;;;7.73;6.93;;;17.40;99.90;;;;;;5042691;28;20267;-75
2022/10/19 10:09:04;;;;;;;7.83;7.13;;;17.30;99.90;;;;;;5040798;28;20209;-76
2022/10/19 10:11:34;;;;;;;7.83;6.17;;;17.30;99.90;;;;;;5037040;28;20182;-74
2022/10/19 10:14:13;;;;;;;8.53;7.30;;;17.30;99.90;;;;;;5046677;28;20220;-75
2022/10/19 10:16:39;;;;;;;7.83;7.03;;;17.30;99.90;;;;;;5043805;28;20192;-75
2022/10/19 10:19:10;;;;;;;8.33;7.50;;;17.40;99.90;;;;;;5042403;28;20177;-75
2022/10/19 10:21:54;;;;;;;9.17;7.93;;;17.40;99.90;;;;;;5046742;28;20233;-76
2022/10/19 10:24:22;;;;;;;8.33;6.93;;;17.40;99.90;;;;;;5027684;28;20204;-74
2022/10/19 10:26:54;;;;;;;8.00;7.20;;;17.50;99.90;;;;;;5027645;28;20261;-76
2022/10/19 10:29:23;;;;;;;8.80;7.90;;;17.60;99.90;;;;;;5045705;28;20197;-75
2022/10/19 10:32:13;;;;;;;8.80;7.70;;;17.70;99.90;;;;;;5037999;28;20646;-75
2022/10/19 10:34:46;;;;;;;8.00;7.20;;;17.70;99.90;;;;;;5043764;28;20682;-75
2022/10/19 10:37:26;;;;;;;9.40;8.37;;;17.90;99.90;;;;;;5039494;28;20231;-74
2022/10/19 10:39:55;;;;;;;11.20;8.37;;;18.00;99.90;;;;;;5034134;28;20178;-75
2022/10/19 10:42:29;;;;;;;9.30;8.20;;;17.90;99.90;;;;;;5042438;28;20170;-75
2022/10/19 10:44:55;;;;;;;10.00;8.13;;;17.90;99.90;;;;;;5042101;28;20217;-77
2022/10/19 10:47:22;;;;;;;8.50;7.53;;;17.90;99.90;;;;;;5043076;28;20224;-75
2022/10/19 10:49:59;;;;;;;7.60;6.80;;;17.90;99.90;;;;;;5040969;28;20209;-75
2022/10/19 10:52:27;;;;;;;9.07;7.20;;;17.90;99.90;;;;;;5041836;28;20271;-74
2022/10/19 10:55:09;;;;;;;7.10;6.40;;;18.10;99.90;;;;;;5039247;28;20209;-74
2022/10/19 10:57:38;;;;;;;7.90;6.83;;;18.30;99.90;;;;;;5034873;28;20175;-74
2022/10/19 11:00:11;;;;;;;6.57;5.97;;;18.50;99.90;;;;;;5034133;28;20214;-75
2022/10/19 11:02:39;;;;;;;8.10;5.57;;;18.80;99.90;;;;;;5034978;28;20182;-75
2022/10/19 11:05:12;;;;;;;6.80;6.10;;;19.00;99.90;;;;;;5036458;28;20663;-75
2022/10/19 11:07:43;;;;;;;5.90;5.30;;;19.00;99.90;;;;;;5038796;28;20197;-75
2022/10/19 11:10:26;;;;;;;6.63;5.93;;;19.00;99.90;;;;;;5044011;28;20579;-74
2022/10/19 11:13:15;;;;;;;6.17;5.40;;;19.00;99.90;;;;;;5042961;28;20233;-74
2022/10/19 11:15:59;;;;;;;5.00;4.50;;;18.90;99.90;;;;;;5040556;28;20196;-77
2022/10/19 11:18:40;;;;;;;5.43;4.93;;;19.00;99.90;;;;;;5047785;28;20184;-77
2022/10/19 11:21:19;;;;;;;7.07;4.63;;;19.00;99.90;;;;;;5055445;28;20273;-80
2022/10/19 11:24:09;;;;;;;4.10;3.70;;;19.10;99.90;;;;;;5046141;28;20205;-75
2022/10/19 11:26:56;;;;;;;3.27;2.97;;;19.30;99.90;;;;;;5038610;28;20174;-78
2022/10/19 11:29:34;;;;;;;4.30;3.10;;;19.50;99.90;;;;;;5036346;28;20213;-74
2022/10/19 11:32:00;;;;;;;2.83;2.63;;;19.70;99.90;;;;;;5037926;28;20256;-75
2022/10/19 11:34:32;;;;;;;2.50;2.30;;;19.90;99.90;;;;;;5043047;28;20218;-75
2022/10/19 11:37:26;;;;;;;3.13;2.70;;;20.00;99.90;;;;;;5042972;28;20739;-75
2022/10/19 11:40:20;;;;;;;2.97;2.53;;;19.90;99.90;;;;;;5043625;28;20268;-75
2022/10/19 11:42:50;;;;;;;3.37;2.70;;;20.00;99.90;;;;;;5041760;28;20178;-75
2022/10/19 11:45:42;;;;;;;2.80;2.60;;;20.10;99.90;;;;;;5044122;28;20673;-74
2022/10/19 11:48:26;;;;;;;5.10;2.93;;;20.00;99.90;;;;;;5037584;28;20174;-74
2022/10/19 11:51:05;;;;;;;2.80;2.53;;;19.90;99.90;;;;;;5046303;28;20186;-74
2022/10/19 11:53:43;;;;;;;3.40;3.00;;;19.80;99.90;;;;;;5040707;28;20255;-75
2022/10/19 11:56:34;;;;;;;2.83;2.60;;;20.10;99.90;;;;;;5044650;28;20227;-75
2022/10/19 11:59:22;;;;;;;3.40;2.70;;;20.60;99.90;;;;;;5041084;28;20571;-74
2022/10/19 12:02:25;;;;;;;5.57;2.60;;;20.60;99.40;;;;;;5039416;28;20243;-74
2022/10/19 12:05:00;;;;;;;4.43;2.33;;;20.50;95.40;;;;;;5049688;28;20210;-75
2022/10/19 12:07:49;;;;;;;6.10;2.83;;;20.30;99.90;;;;;;5035730;28;20191;-74
2022/10/19 12:10:26;;;;;;;2.87;2.60;;;20.30;99.10;;;;;;5036406;28;20758;-74
2022/10/19 12:12:57;;;;;;;2.80;2.60;;;20.30;99.90;;;;;;5036287;28;20248;-73
2022/10/19 12:15:37;;;;;;;2.87;2.57;;;20.20;99.60;;;;;;5039144;28;20179;-75
2022/10/19 12:18:13;;;;;;;3.80;2.60;;;20.10;99.50;;;;;;5041108;28;20300;-73
2022/10/19 12:20:55;;;;;;;2.87;2.60;;;20.20;99.50;;;;;;5040849;28;20188;-73
2022/10/19 12:23:31;;;;;;;2.40;2.20;;;20.20;99.90;;;;;;5041651;28;20206;-75
2022/10/19 12:26:00;;;;;;;2.50;2.30;;;20.50;99.20;;;;;;5039284;28;20184;-74
2022/10/19 12:28:32;;;;;;;3.40;2.30;;;21.00;97.40;;;;;;5023883;28;20676;-73
2022/10/19 12:31:00;;;;;;;7.17;3.20;;;21.60;97.20;;;;;;5043085;28;20269;-74
2022/10/19 12:33:35;;;;;;;3.20;2.30;;;22.20;90.10;;;;;;5035495;28;20435;-73
2022/10/19 12:36:22;;;;;;;2.20;2.07;;;22.50;79.60;;;;;;5046136;28;20728;-73
2022/10/19 12:39:11;;;;;;;2.30;2.10;;;22.30;77.20;;;;;;5047791;28;20186;-74
2022/10/19 12:41:44;;;;;;;4.53;2.10;;;22.20;77.50;;;;;;5048474;28;20686;-74
2022/10/19 12:44:41;;;;;;;2.27;2.00;;;22.30;77.00;;;;;;5047776;28;20645;-74
2022/10/19 12:47:33;;;;;;;2.60;2.30;;;22.10;75.60;;;;;;5048102;28;20185;-73
2022/10/19 12:49:59;;;;;;;2.47;2.20;;;22.30;77.80;;;;;;5043101;28;20272;-73
2022/10/19 12:52:47;;;;;;;4.10;2.20;;;22.40;75.90;;;;;;5040619;28;20179;-73
2022/10/19 12:55:15;;;;;;;3.37;2.17;;;22.40;74.30;;;;;;5037727;28;20179;-75
2022/10/19 12:57:46;;;;;;;2.33;2.13;;;22.40;74.30;;;;;;5047836;28;20186;-75
2022/10/19 13:00:18;;;;;;;5.73;2.30;;;22.20;73.40;;;;;;5035553;28;20186;-75
2022/10/19 13:02:46;;;;;;;3.80;2.50;;;21.80;74.00;;;;;;5029373;28;20249;-75
2022/10/19 13:05:23;;;;;;;2.40;2.20;;;21.70;75.60;;;;;;5035692;28;20825;-75
2022/10/19 13:07:50;;;;;;;2.57;2.30;;;21.60;77.90;;;;;;5034949;28;20241;-75
2022/10/19 13:10:22;;;;;;;2.50;2.30;;;21.50;77.50;;;;;;5042314;28;20213;-75